createdAt,value
2023-03-15T00:00:56.637Z,62997.48
2023-03-15T00:02:00.127Z,63009.52
2023-03-15T00:03:02.368Z,63002.79
2023-03-15T00:04:04.838Z,63005.82
2023-03-15T00:05:09.330Z,63003.89
2023-03-15T00:06:13.305Z,63005.28
2023-03-15T00:07:15.278Z,63005.95
2023-03-15T00:08:17.894Z,63005.95
2023-03-15T00:09:20.948Z,63000.62
2023-03-15T00:10:22.954Z,63003.76
2023-03-15T00:11:24.844Z,62997.21
2023-03-15T00:12:26.773Z,63001.58
2023-03-15T00:13:33.639Z,62992.86
2023-03-15T00:14:36.277Z,62987.95
2023-03-15T00:15:51.758Z,62993.82
2023-03-15T00:16:53.805Z,62993.39
2023-03-15T00:17:55.770Z,62988.08
2023-03-15T00:18:59.937Z,62986.98
2023-03-15T00:20:03.210Z,62990.12
2023-03-15T00:21:05.128Z,62989.04
2023-03-15T00:22:09.904Z,62988.48
2023-03-15T00:23:12.734Z,62986.44
2023-03-15T00:24:15.318Z,62989.58
2023-03-15T00:25:19.420Z,62990.12
2023-03-15T00:26:22.401Z,62984.13
2023-03-15T00:27:24.434Z,62983.17
2023-03-15T00:28:26.324Z,62983.17
2023-03-15T00:29:28.360Z,62990.96
2023-03-15T00:30:31.028Z,62983.99
2023-03-15T00:31:33.141Z,62979.89
2023-03-15T00:32:35.138Z,62984.96
2023-03-15T00:33:37.416Z,62983.88
2023-03-15T00:34:39.321Z,62975.41
2023-03-15T00:35:43.233Z,62971.29
2023-03-15T00:36:47.353Z,62978.68
2023-03-15T00:37:56.511Z,62974.84
2023-03-15T00:38:58.508Z,62973.34
2023-03-15T00:40:00.530Z,62971.17
2023-03-15T00:41:14.847Z,62965.16
2023-03-15T00:42:17.432Z,62971.03
2023-03-15T00:43:19.374Z,62970.49
2023-03-15T00:44:21.777Z,62975.41
2023-03-15T00:45:24.018Z,62972.13
2023-03-15T00:46:26.330Z,62976.48
2023-03-15T00:47:28.359Z,62978.00
2023-03-15T00:48:31.380Z,62967.89
2023-03-15T00:49:33.557Z,62973.21
2023-03-15T00:50:38.767Z,62966.26
2023-03-15T00:51:40.941Z,62966.12
2023-03-15T00:52:42.989Z,62966.68
2023-03-15T00:53:47.397Z,62966.68
2023-03-15T00:54:54.058Z,62966.41
2023-03-15T00:55:56.346Z,62955.47
2023-03-15T00:57:02.103Z,62953.30
2023-03-15T00:58:04.267Z,62963.27
2023-03-15T00:59:06.504Z,62959.17
2023-03-15T01:00:12.682Z,62961.09
2023-03-15T01:01:17.641Z,62966.00
2023-03-15T01:02:20.067Z,62963.41
2023-03-15T01:03:21.992Z,62964.23
2023-03-15T01:04:25.016Z,62963.41
2023-03-15T01:05:27.470Z,62957.54
2023-03-15T01:06:29.602Z,62962.17
2023-03-15T01:07:32.248Z,62961.21
2023-03-15T01:08:34.565Z,62955.76
2023-03-15T01:09:36.747Z,62960.54
2023-03-15T01:10:38.832Z,62955.76
2023-03-15T01:11:40.869Z,62953.59
2023-03-15T01:12:43.844Z,62953.59
2023-03-15T01:13:47.721Z,62951.41
2023-03-15T01:14:49.734Z,62955.09
2023-03-15T01:15:53.066Z,62950.31
2023-03-15T01:16:55.825Z,62947.71
2023-03-15T01:17:57.730Z,62943.23
2023-03-15T01:18:59.623Z,62943.23
2023-03-15T01:20:01.789Z,62943.23
2023-03-15T01:21:11.526Z,62941.59
2023-03-15T01:22:13.914Z,62932.31
2023-03-15T01:23:16.220Z,62932.31
2023-03-15T01:24:18.150Z,62934.79
2023-03-15T01:25:20.038Z,62937.22
2023-03-15T01:26:22.927Z,62931.77
2023-03-15T01:27:25.910Z,62928.92
2023-03-15T01:28:28.506Z,62919.36
2023-03-15T01:29:30.398Z,62925.79
2023-03-15T01:30:33.074Z,62926.07
2023-03-15T01:31:35.196Z,62919.78
2023-03-15T01:32:37.347Z,62925.11
2023-03-15T01:33:39.535Z,62916.50
2023-03-15T01:34:42.016Z,62920.60
2023-03-15T01:35:44.192Z,62919.36
2023-03-15T01:36:51.521Z,62920.87
2023-03-15T01:37:53.537Z,62920.74
2023-03-15T01:38:55.526Z,62909.96
2023-03-15T01:39:57.626Z,62915.29
2023-03-15T01:41:00.639Z,62907.79
2023-03-15T01:42:03.385Z,62913.23
2023-03-15T01:43:09.054Z,62911.60
2023-03-15T01:44:15.957Z,62908.46
2023-03-15T01:45:56.880Z,62914.08
2023-03-15T01:46:59.209Z,62906.15
2023-03-15T01:48:01.974Z,62910.38
2023-03-15T01:49:13.414Z,62905.61
2023-03-15T01:50:17.344Z,62903.42
2023-03-15T01:51:23.161Z,62906.01
2023-03-15T01:52:29.487Z,62897.55
2023-03-15T01:53:32.698Z,62902.09
2023-03-15T01:55:06.000Z,62903.70
2023-03-15T01:56:10.333Z,62898.93
2023-03-15T01:57:21.739Z,62895.80
2023-03-15T01:58:25.671Z,62893.62
2023-03-15T01:59:37.115Z,62887.08
2023-03-15T02:00:40.258Z,62887.62
2023-03-15T02:01:43.210Z,62889.67
2023-03-15T02:02:57.963Z,62886.52
2023-03-15T02:04:05.741Z,62889.54
2023-03-15T02:05:11.413Z,62876.84
2023-03-15T02:06:17.766Z,62879.44
2023-03-15T02:07:23.022Z,62873.45
2023-03-15T02:08:28.352Z,62870.72
2023-03-15T02:09:46.063Z,62871.82
2023-03-15T02:10:51.493Z,62862.68
2023-03-15T02:11:54.051Z,62865.28
2023-03-15T02:12:59.390Z,62865.28
2023-03-15T02:14:03.837Z,62862.68
2023-03-15T02:15:07.806Z,62865.42
2023-03-15T02:16:12.895Z,62862.00
2023-03-15T02:17:15.101Z,62859.83
2023-03-15T02:18:17.520Z,62856.56
2023-03-15T02:19:32.476Z,62855.46
2023-03-15T02:20:41.200Z,62857.64
2023-03-15T02:21:46.857Z,62857.10
2023-03-15T02:22:55.485Z,62854.67
2023-03-15T02:24:01.157Z,62854.93
2023-03-15T02:25:12.840Z,62857.94
2023-03-15T02:27:32.446Z,62854.93
2023-03-15T02:28:36.795Z,62845.65
2023-03-15T02:29:39.034Z,62846.21
2023-03-15T02:30:43.120Z,62839.79
2023-03-15T02:31:45.575Z,62849.77
2023-03-15T02:32:48.626Z,62844.02
2023-03-15T02:33:52.912Z,62847.17
2023-03-15T02:34:55.284Z,62846.75
2023-03-15T02:36:12.654Z,62842.66
2023-03-15T02:37:14.844Z,62845.25
2023-03-15T02:38:17.737Z,62842.52
2023-03-15T02:39:21.911Z,62833.81
2023-03-15T02:40:26.818Z,62836.40
2023-03-15T02:41:40.895Z,62841.31
2023-03-15T02:42:43.414Z,62834.77
2023-03-15T02:43:48.100Z,62834.77
2023-03-15T02:44:51.156Z,62830.40
2023-03-15T02:45:53.720Z,62832.04
2023-03-15T02:46:59.612Z,62837.78
2023-03-15T02:48:04.256Z,62822.79
2023-03-15T02:49:07.896Z,62822.79
2023-03-15T02:50:10.772Z,62822.11
2023-03-15T02:51:27.992Z,62824.96
2023-03-15T02:52:30.017Z,62817.88
2023-03-15T02:53:32.102Z,62818.42
2023-03-15T02:54:35.408Z,62823.74
2023-03-15T02:55:38.109Z,62829.07
2023-03-15T02:56:40.980Z,62822.79
2023-03-15T02:57:43.053Z,62817.34
2023-03-15T02:58:45.228Z,62823.88
2023-03-15T02:59:47.314Z,62827.97
2023-03-15T03:00:49.790Z,62826.47
2023-03-15T03:01:52.498Z,62828.65
2023-03-15T03:02:54.963Z,62820.47
2023-03-15T03:03:56.862Z,62817.34
2023-03-15T03:04:58.745Z,62816.66
2023-03-15T03:06:00.659Z,62805.90
2023-03-15T03:07:02.864Z,62805.90
2023-03-15T03:08:07.051Z,62804.94
2023-03-15T03:09:10.494Z,62807.95
2023-03-15T03:10:16.728Z,62800.88
2023-03-15T03:11:18.723Z,62801.84
2023-03-15T03:12:20.616Z,62800.88
2023-03-15T03:13:22.789Z,62792.29
2023-03-15T03:14:26.166Z,62792.82
2023-03-15T03:15:28.085Z,62783.57
2023-03-15T03:16:30.308Z,62782.48
2023-03-15T03:17:34.543Z,62789.98
2023-03-15T03:18:37.252Z,62778.14
2023-03-15T03:19:39.475Z,62781.94
2023-03-15T03:20:41.551Z,62778.68
2023-03-15T03:21:43.424Z,62776.50
2023-03-15T03:22:45.800Z,62774.19
2023-03-15T03:23:47.873Z,62780.31
2023-03-15T03:24:52.527Z,62780.31
2023-03-15T03:25:55.954Z,62785.49
2023-03-15T03:26:58.288Z,62774.87
2023-03-15T03:28:00.888Z,62778.95
2023-03-15T03:29:04.368Z,62775.82
2023-03-15T03:30:10.786Z,62763.97
2023-03-15T03:31:19.224Z,62766.98
2023-03-15T03:32:21.435Z,62762.89
2023-03-15T03:33:24.032Z,62759.21
2023-03-15T03:34:25.908Z,62767.66
2023-03-15T03:35:27.802Z,62760.16
2023-03-15T03:36:29.893Z,62757.99
2023-03-15T03:37:31.850Z,62757.45
2023-03-15T03:38:33.887Z,62755.26
2023-03-15T03:39:35.924Z,62755.54
2023-03-15T03:40:38.760Z,62751.87
2023-03-15T03:41:40.981Z,62758.69
2023-03-15T03:42:42.905Z,62744.92
2023-03-15T03:43:44.766Z,62751.87
2023-03-15T03:44:46.708Z,62743.55
2023-03-15T03:45:48.772Z,62740.02
2023-03-15T03:46:51.174Z,62736.63
2023-03-15T03:47:53.096Z,62737.31
2023-03-15T03:48:55.018Z,62744.13
2023-03-15T03:49:56.865Z,62742.35
2023-03-15T03:50:59.313Z,62738.27
2023-03-15T03:52:01.320Z,62736.08
2023-03-15T03:53:04.416Z,62733.48
2023-03-15T03:54:07.079Z,62740.86
2023-03-15T03:55:11.858Z,62735.96
2023-03-15T03:56:14.094Z,62733.90
2023-03-15T03:57:16.134Z,62728.05
2023-03-15T03:58:18.496Z,62726.30
2023-03-15T03:59:20.490Z,62732.27
2023-03-15T04:00:22.648Z,62729.56
2023-03-15T04:01:25.351Z,62732.69
2023-03-15T04:02:27.316Z,62731.59
2023-03-15T04:03:29.867Z,62730.52
2023-03-15T04:04:31.841Z,62725.88
2023-03-15T04:05:34.765Z,62719.88
2023-03-15T04:06:36.740Z,62730.64
2023-03-15T04:07:38.880Z,62730.78
2023-03-15T04:08:41.164Z,62733.23
2023-03-15T04:09:43.193Z,62729.68
2023-03-15T04:10:47.351Z,62731.59
2023-03-15T04:11:49.461Z,62725.20
2023-03-15T04:12:55.396Z,62722.07
2023-03-15T04:13:57.413Z,62727.37
2023-03-15T04:14:59.322Z,62732.83
2023-03-15T04:16:01.787Z,62736.08
2023-03-15T04:17:05.090Z,62731.59
2023-03-15T04:18:07.566Z,62723.71
2023-03-15T04:19:09.601Z,62719.34
2023-03-15T04:20:11.883Z,62725.88
2023-03-15T04:21:13.856Z,62727.37
2023-03-15T04:22:16.091Z,62719.34
2023-03-15T04:23:18.759Z,62724.66
2023-03-15T04:24:20.668Z,62721.39
2023-03-15T04:25:22.731Z,62722.47
2023-03-15T04:26:25.689Z,62723.03
2023-03-15T04:27:28.793Z,62724.11
2023-03-15T04:28:31.956Z,62719.34
2023-03-15T04:29:34.109Z,62719.88
2023-03-15T04:30:37.129Z,62724.66
2023-03-15T04:31:39.059Z,62726.84
2023-03-15T04:32:41.899Z,62729.56
2023-03-15T04:33:44.016Z,62726.97
2023-03-15T04:34:46.011Z,62724.66
2023-03-15T04:35:47.986Z,62726.97
2023-03-15T04:36:50.196Z,62732.69
2023-03-15T04:37:53.844Z,62736.08
2023-03-15T04:38:57.249Z,62735.68
2023-03-15T04:40:00.980Z,62735.00
2023-03-15T04:41:05.176Z,62738.67
2023-03-15T04:42:07.467Z,62731.32
2023-03-15T04:43:09.892Z,62727.37
2023-03-15T04:44:11.898Z,62732.15
2023-03-15T04:45:13.947Z,62734.44
2023-03-15T04:46:16.234Z,62737.71
2023-03-15T04:47:18.385Z,62730.78
2023-03-15T04:48:20.383Z,62738.39
2023-03-15T04:49:22.419Z,62745.76
2023-03-15T04:50:25.424Z,62734.05
2023-03-15T04:51:27.415Z,62744.66
2023-03-15T04:52:29.514Z,62738.39
2023-03-15T04:53:31.502Z,62746.30
2023-03-15T04:54:33.954Z,62739.62
2023-03-15T04:55:35.874Z,62745.60
2023-03-15T04:56:39.155Z,62740.02
2023-03-15T04:57:41.062Z,62746.97
2023-03-15T04:58:42.961Z,62747.65
2023-03-15T04:59:44.845Z,62752.41
2023-03-15T05:00:47.056Z,62751.32
2023-03-15T05:01:49.178Z,62757.85
2023-03-15T05:02:51.140Z,62762.08
2023-03-15T05:03:54.154Z,62757.31
2023-03-15T05:04:56.172Z,62760.58
2023-03-15T05:05:58.065Z,62754.59
2023-03-15T05:07:00.092Z,62760.04
2023-03-15T05:08:02.312Z,62768.07
2023-03-15T05:09:04.427Z,62764.93
2023-03-15T05:10:07.513Z,62770.92
2023-03-15T05:11:09.425Z,62767.80
2023-03-15T05:12:12.398Z,62772.14
2023-03-15T05:13:14.394Z,62777.04
2023-03-15T05:14:16.437Z,62775.27
2023-03-15T05:15:18.632Z,62767.37
2023-03-15T05:16:21.068Z,62782.36
2023-03-15T05:17:23.261Z,62778.68
2023-03-15T05:18:25.157Z,62788.76
2023-03-15T05:19:27.043Z,62770.92
2023-03-15T05:20:29.121Z,62784.54
2023-03-15T05:21:31.015Z,62793.11
2023-03-15T05:22:33.611Z,62791.19
2023-03-15T05:23:35.613Z,62795.55
2023-03-15T05:24:37.503Z,62798.40
2023-03-15T05:25:39.597Z,62806.86
2023-03-15T05:26:41.909Z,62818.72
2023-03-15T05:27:44.906Z,62816.53
2023-03-15T05:28:47.057Z,62821.43
2023-03-15T05:29:48.967Z,62818.30
2023-03-15T05:30:53.335Z,62815.29
2023-03-15T05:31:55.635Z,62828.23
2023-03-15T05:32:59.912Z,62832.04
2023-03-15T05:34:02.688Z,62832.85
2023-03-15T05:35:06.667Z,62841.17
2023-03-15T05:36:09.190Z,62848.25
2023-03-15T05:37:11.157Z,62851.12
2023-03-15T05:38:13.550Z,62855.46
2023-03-15T05:39:15.440Z,62865.70
2023-03-15T05:40:18.114Z,62858.45
2023-03-15T05:41:20.053Z,62873.74
2023-03-15T05:42:24.036Z,62871.82
2023-03-15T05:43:25.942Z,62878.09
2023-03-15T05:44:27.924Z,62874.84
2023-03-15T05:45:29.808Z,62877.68
2023-03-15T05:46:32.114Z,62879.44
2023-03-15T05:47:34.246Z,62879.44
2023-03-15T05:48:36.336Z,62885.30
2023-03-15T05:49:38.232Z,62892.52
2023-03-15T05:50:40.747Z,62907.53
2023-03-15T05:51:42.746Z,62907.11
2023-03-15T05:52:44.940Z,62908.21
2023-03-15T05:53:46.826Z,62906.15
2023-03-15T05:54:49.616Z,62898.51
2023-03-15T05:55:52.171Z,62908.21
2023-03-15T05:56:54.167Z,62873.32
2023-03-15T05:57:56.046Z,62875.49
2023-03-15T05:58:57.925Z,62891.85
2023-03-15T05:59:59.808Z,62902.88
2023-03-15T06:01:03.671Z,62908.32
2023-03-15T06:02:06.603Z,62913.66
2023-03-15T06:03:08.519Z,62908.04
2023-03-15T06:04:10.551Z,62914.33
2023-03-15T06:05:12.929Z,62913.77
2023-03-15T06:06:15.383Z,62918.68
2023-03-15T06:07:19.694Z,62920.87
2023-03-15T06:08:21.774Z,62926.75
2023-03-15T06:09:23.786Z,62932.73
2023-03-15T06:10:25.802Z,62930.13
2023-03-15T06:11:28.098Z,62937.50
2023-03-15T06:12:29.997Z,62920.87
2023-03-15T06:13:32.042Z,62925.23
2023-03-15T06:14:33.933Z,62936.14
2023-03-15T06:15:37.110Z,62939.41
2023-03-15T06:16:39.512Z,62937.22
2023-03-15T06:17:42.600Z,62927.11
2023-03-15T06:18:44.613Z,62940.38
2023-03-15T06:19:46.744Z,62907.25
2023-03-15T06:20:48.870Z,62926.19
2023-03-15T06:21:50.765Z,62924.69
2023-03-15T06:22:52.817Z,62902.88
2023-03-15T06:23:54.866Z,62914.45
2023-03-15T06:24:56.757Z,62934.37
2023-03-15T06:25:58.679Z,62944.86
2023-03-15T06:27:01.459Z,62951.95
2023-03-15T06:28:03.478Z,62961.09
2023-03-15T06:29:06.084Z,62962.02
2023-03-15T06:30:09.720Z,62980.18
2023-03-15T06:31:15.115Z,62985.88
2023-03-15T06:32:17.480Z,63003.35
2023-03-15T06:33:19.486Z,63017.96
2023-03-15T06:34:22.054Z,63020.67
2023-03-15T06:35:23.952Z,63034.32
2023-03-15T06:36:25.943Z,63041.96
2023-03-15T06:37:35.151Z,63046.32
2023-03-15T06:38:32.798Z,63051.77
2023-03-15T06:39:35.798Z,63054.76
2023-03-15T06:40:38.015Z,63067.06
2023-03-15T06:41:40.236Z,63054.22
2023-03-15T06:42:42.557Z,63000.48
2023-03-15T06:43:44.492Z,63042.37
2023-03-15T06:44:46.607Z,63061.61
2023-03-15T06:45:48.577Z,63073.61
2023-03-15T06:46:50.722Z,63079.20
2023-03-15T06:47:53.350Z,63083.02
2023-03-15T06:48:55.847Z,63091.10
2023-03-15T06:49:57.761Z,63104.19
2023-03-15T06:50:59.842Z,63125.79
2023-03-15T06:52:03.244Z,63139.98
2023-03-15T06:53:06.246Z,63136.55
2023-03-15T06:54:08.235Z,63157.32
2023-03-15T06:55:10.118Z,63184.64
2023-03-15T06:56:12.259Z,63192.71
2023-03-15T06:57:14.419Z,63210.62
2023-03-15T06:58:16.413Z,63212.94
2023-03-15T06:59:18.940Z,63223.86
2023-03-15T07:00:23.766Z,63252.84
2023-03-15T07:01:25.676Z,63270.89
2023-03-15T07:02:27.673Z,63273.75
2023-03-15T07:03:29.825Z,63248.05
2023-03-15T07:04:31.829Z,63253.51
2023-03-15T07:05:33.714Z,63256.12
2023-03-15T07:06:35.737Z,63260.07
2023-03-15T07:07:37.707Z,63267.48
2023-03-15T07:08:39.713Z,63263.11
2023-03-15T07:09:41.790Z,63256.36
2023-03-15T07:10:44.002Z,63244.23
2023-03-15T07:11:46.344Z,63236.02
2023-03-15T07:12:48.341Z,63236.56
2023-03-15T07:13:50.215Z,63238.63
2023-03-15T07:14:53.219Z,63251.09
2023-03-15T07:15:56.063Z,63247.80
2023-03-15T07:16:58.258Z,63251.76
2023-03-15T07:18:00.234Z,63247.51
2023-03-15T07:19:03.358Z,63265.43
2023-03-15T07:20:06.310Z,63268.41
2023-03-15T07:21:08.185Z,63276.90
2023-03-15T07:22:11.087Z,63266.10
2023-03-15T07:23:13.196Z,63275.82
2023-03-15T07:24:15.412Z,63276.06
2023-03-15T07:25:17.335Z,63269.49
2023-03-15T07:26:19.962Z,63279.40
2023-03-15T07:27:22.798Z,63268.52
2023-03-15T07:28:26.203Z,63275.82
2023-03-15T07:29:28.387Z,63271.68
2023-03-15T07:30:30.585Z,63297.14
2023-03-15T07:31:32.607Z,63321.34
2023-03-15T07:32:34.552Z,63326.13
2023-03-15T07:33:38.375Z,63342.26
2023-03-15T07:34:40.506Z,63369.93
2023-03-15T07:35:42.635Z,63382.75
2023-03-15T07:36:45.121Z,63397.43
2023-03-15T07:37:47.256Z,63415.93
2023-03-15T07:38:49.242Z,63413.99
2023-03-15T07:39:51.114Z,63429.09
2023-03-15T07:40:53.101Z,63435.90
2023-03-15T07:41:55.677Z,63442.45
2023-03-15T07:42:57.565Z,63460.54
2023-03-15T07:43:59.631Z,63477.29
2023-03-15T07:45:03.867Z,63468.09
2023-03-15T07:46:06.229Z,63458.65
2023-03-15T07:47:09.971Z,63464.26
2023-03-15T07:48:12.748Z,63466.98
2023-03-15T07:49:14.608Z,63464.26
2023-03-15T07:50:17.320Z,63461.51
2023-03-15T07:51:19.349Z,63461.38
2023-03-15T07:52:21.585Z,63456.04
2023-03-15T07:53:23.674Z,63465.90
2023-03-15T07:54:26.944Z,63481.89
2023-03-15T07:55:30.511Z,63493.84
2023-03-15T07:56:34.977Z,63506.87
2023-03-15T07:57:37.006Z,63500.83
2023-03-15T07:58:38.897Z,63512.04
2023-03-15T07:59:40.975Z,63534.27
2023-03-15T08:00:43.133Z,63519.05
2023-03-15T08:01:45.073Z,63534.27
2023-03-15T08:02:47.309Z,63532.86
2023-03-15T08:03:49.205Z,63539.08
2023-03-15T08:04:51.189Z,63530.55
2023-03-15T08:05:53.192Z,63537.02
2023-03-15T08:06:55.644Z,63519.72
2023-03-15T08:07:57.686Z,63508.82
2023-03-15T08:08:59.682Z,63511.67
2023-03-15T08:11:13.675Z,63507.54
2023-03-15T08:12:15.574Z,63504.12
2023-03-15T08:13:17.556Z,63516.00
2023-03-15T08:14:19.551Z,63526.17
2023-03-15T08:15:21.555Z,63498.21
2023-03-15T08:16:23.718Z,63504.25
2023-03-15T08:17:25.714Z,63496.69
2023-03-15T08:18:27.572Z,63497.67
2023-03-15T08:19:29.509Z,63508.08
2023-03-15T08:20:32.123Z,63481.66
2023-03-15T08:21:34.402Z,63465.90
2023-03-15T08:22:40.228Z,63458.65
2023-03-15T08:23:43.361Z,63453.29
2023-03-15T08:24:45.436Z,63456.04
2023-03-15T08:25:50.699Z,63457.12
2023-03-15T08:26:52.905Z,63444.40
2023-03-15T08:27:55.779Z,63434.79
2023-03-15T08:28:57.652Z,63419.89
2023-03-15T08:30:00.409Z,63419.76
2023-03-15T08:31:08.456Z,63429.50
2023-03-15T08:32:12.745Z,63422.08
2023-03-15T08:33:16.012Z,63424.26
2023-03-15T08:34:18.723Z,63425.80
2023-03-15T08:35:21.482Z,63433.02
2023-03-15T08:36:24.071Z,63455.37
2023-03-15T08:37:26.171Z,63468.52
2023-03-15T08:38:28.145Z,63482.76
2023-03-15T08:39:30.132Z,63501.62
2023-03-15T08:40:33.076Z,63516.43
2023-03-15T08:41:36.497Z,63502.06
2023-03-15T08:42:38.520Z,63519.59
2023-03-15T08:43:41.339Z,63499.20
2023-03-15T08:44:43.353Z,63487.39
2023-03-15T08:46:00.323Z,63491.96
2023-03-15T08:46:50.946Z,63492.19
2023-03-15T08:49:09.728Z,63499.85
2023-03-15T08:50:14.453Z,63469.43
2023-03-15T08:51:16.441Z,63488.90
2023-03-15T08:52:19.774Z,63490.78
2023-03-15T08:53:22.232Z,63498.87
2023-03-15T08:54:24.783Z,63498.34
2023-03-15T08:55:26.774Z,63517.82
2023-03-15T08:56:30.958Z,63526.91
2023-03-15T08:57:34.252Z,63519.59
2023-03-15T08:58:36.564Z,63524.53
2023-03-15T08:59:39.268Z,63516.30
2023-03-15T09:00:41.267Z,63513.45
2023-03-15T09:01:44.249Z,63504.25
2023-03-15T09:02:49.197Z,63516.30
2023-03-15T09:03:51.208Z,63517.82
2023-03-15T09:04:53.660Z,63519.05
2023-03-15T09:07:08.155Z,63513.01
2023-03-15T09:08:10.863Z,63521.78
2023-03-15T09:09:12.878Z,63536.59
2023-03-15T09:10:16.559Z,63543.34
2023-03-15T09:11:19.179Z,63529.57
2023-03-15T09:12:21.233Z,63521.11
2023-03-15T09:13:26.141Z,63516.97
2023-03-15T09:14:28.194Z,63535.37
2023-03-15T09:15:30.253Z,63535.37
2023-03-15T09:16:32.910Z,63539.75
2023-03-15T09:17:34.964Z,63545.23
2023-03-15T09:18:36.894Z,63537.25
2023-03-15T09:19:39.132Z,63542.93
2023-03-15T09:20:41.125Z,63541.09
2023-03-15T09:21:44.981Z,63535.07
2023-03-15T09:22:53.081Z,63541.70
2023-03-15T09:23:55.037Z,63536.46
2023-03-15T09:24:57.019Z,63528.12
2023-03-15T09:25:59.078Z,63533.73
2023-03-15T09:27:01.586Z,63537.12
2023-03-15T09:28:05.325Z,63540.85
2023-03-15T09:29:09.566Z,63526.41
2023-03-15T09:30:13.534Z,63531.21
2023-03-15T09:31:15.531Z,63541.52
2023-03-15T09:32:17.567Z,63539.75
2023-03-15T09:33:21.603Z,63547.00
2023-03-15T09:34:25.380Z,63548.52
2023-03-15T09:35:27.696Z,63558.62
2023-03-15T09:36:30.019Z,63551.27
2023-03-15T09:37:32.460Z,63552.04
2023-03-15T09:38:34.436Z,63550.96
2023-03-15T09:39:36.554Z,63567.72
2023-03-15T09:40:41.851Z,63574.29
2023-03-15T09:41:47.665Z,63573.31
2023-03-15T09:44:25.191Z,63569.60
2023-03-15T09:45:47.868Z,63561.81
2023-03-15T09:47:10.473Z,63553.14
2023-03-15T09:48:31.563Z,63563.33
2023-03-15T09:49:52.379Z,63550.29
2023-03-15T09:50:58.417Z,63549.18
2023-03-15T09:52:04.119Z,63546.46
2023-03-15T09:53:09.819Z,63545.23
2023-03-15T09:54:23.970Z,63536.15
2023-03-15T09:55:28.131Z,63541.93
2023-03-15T09:56:36.912Z,63522.88
2023-03-15T09:57:42.611Z,63544.92
2023-03-15T09:58:45.612Z,63540.31
2023-03-15T09:59:51.313Z,63539.87
2023-03-15T10:00:58.414Z,63551.27
2023-03-15T10:02:16.068Z,63529.26
2023-03-15T10:03:27.818Z,63531.11
2023-03-15T10:04:32.595Z,63548.10
2023-03-15T10:05:47.118Z,63541.09
2023-03-15T10:06:53.794Z,63538.34
2023-03-15T10:07:55.791Z,63544.14
2023-03-15T10:09:01.650Z,63548.10
2023-03-15T10:10:07.763Z,63547.43
2023-03-15T10:11:22.517Z,63536.15
2023-03-15T10:12:31.221Z,63545.79
2023-03-15T10:13:52.054Z,63548.77
2023-03-15T10:14:57.734Z,63547.67
2023-03-15T10:16:06.510Z,63547.43
2023-03-15T10:17:11.734Z,63532.75
2023-03-15T10:18:26.591Z,63526.28
2023-03-15T10:19:49.974Z,63541.93
2023-03-15T10:20:55.796Z,63537.02
2023-03-15T10:22:16.049Z,63535.07
2023-03-15T10:23:24.726Z,63534.27
2023-03-15T10:24:30.475Z,63549.31
2023-03-15T10:25:34.624Z,63565.10
2023-03-15T10:26:41.046Z,63572.10
2023-03-15T10:27:49.574Z,63565.64
2023-03-15T10:28:52.752Z,63572.41
2023-03-15T10:29:57.428Z,63568.06
2023-03-15T10:31:01.499Z,63578.14
2023-03-15T10:32:05.824Z,63574.85
2023-03-15T10:33:17.679Z,63568.50
2023-03-15T10:34:21.226Z,63573.31
2023-03-15T10:35:24.368Z,63577.83
2023-03-15T10:36:26.415Z,63591.85
2023-03-15T10:37:28.476Z,63594.27
2023-03-15T10:38:30.371Z,63596.46
2023-03-15T10:39:32.335Z,63602.39
2023-03-15T10:42:03.231Z,63597.02
2023-03-15T10:43:15.054Z,63593.06
2023-03-15T10:44:20.706Z,63591.41
2023-03-15T10:45:25.158Z,63598.41
2023-03-15T10:46:27.570Z,63603.35
2023-03-15T10:47:29.833Z,63602.96
2023-03-15T10:48:34.676Z,63611.73
2023-03-15T10:49:39.229Z,63624.34
2023-03-15T10:50:41.471Z,63617.88
2023-03-15T10:51:48.003Z,63615.56
2023-03-15T10:52:52.012Z,63616.77
2023-03-15T10:53:58.262Z,63618.31
2023-03-15T10:55:18.601Z,63616.54
2023-03-15T10:57:40.401Z,63629.15
2023-03-15T10:58:55.124Z,63619.29
2023-03-15T11:00:00.995Z,63625.44
2023-03-15T11:01:05.476Z,63611.06
2023-03-15T11:02:19.902Z,63612.40
2023-03-15T11:03:23.628Z,63612.71
2023-03-15T11:04:25.840Z,63603.06
2023-03-15T11:05:40.239Z,63612.14
2023-03-15T11:06:55.049Z,63600.06
2023-03-15T11:07:59.612Z,63601.98
2023-03-15T11:09:11.370Z,63599.52
2023-03-15T11:10:17.914Z,63596.79
2023-03-15T11:11:20.663Z,63594.16
2023-03-15T11:12:25.510Z,63602.27
2023-03-15T11:13:30.178Z,63599.23
2023-03-15T11:14:35.993Z,63592.62
2023-03-15T11:15:41.360Z,63595.25
2023-03-15T11:16:49.798Z,63598.98
2023-03-15T11:17:52.066Z,63597.43
2023-03-15T11:19:02.750Z,63606.25
2023-03-15T11:20:30.252Z,63601.41
2023-03-15T11:21:34.758Z,63610.19
2023-03-15T11:22:36.788Z,63598.69
2023-03-15T11:23:41.670Z,63602.96
2023-03-15T11:24:43.692Z,63613.25
2023-03-15T11:25:46.054Z,63619.29
2023-03-15T11:26:50.278Z,63609.52
2023-03-15T11:27:52.773Z,63608.54
2023-03-15T11:29:01.492Z,63604.71
2023-03-15T11:30:04.624Z,63608.44
2023-03-15T11:31:07.317Z,63612.71
2023-03-15T11:32:28.165Z,63619.84
2023-03-15T11:33:43.452Z,63601.41
2023-03-15T11:34:52.033Z,63609.96
2023-03-15T11:35:56.810Z,63604.60
2023-03-15T11:37:08.346Z,63612.14
2023-03-15T11:38:19.544Z,63608.87
2023-03-15T11:39:25.980Z,63609.52
2023-03-15T11:40:43.933Z,63608.98
2023-03-15T11:41:49.674Z,63609.96
2023-03-15T11:43:00.957Z,63603.35
2023-03-15T11:44:23.595Z,63606.66
2023-03-15T11:45:41.625Z,63604.48
2023-03-15T11:46:50.213Z,63600.87
2023-03-15T11:48:01.839Z,63605.81
2023-03-15T11:49:16.390Z,63602.27
2023-03-15T11:50:19.352Z,63594.27
2023-03-15T11:51:21.562Z,63603.50
2023-03-15T11:52:26.387Z,63606.25
2023-03-15T11:53:38.194Z,63604.71
2023-03-15T11:54:40.905Z,63590.87
2023-03-15T11:55:49.455Z,63593.37
2023-03-15T11:56:55.993Z,63591.10
2023-03-15T11:58:01.719Z,63592.39
2023-03-15T11:59:10.122Z,63592.52
2023-03-15T12:00:35.256Z,63584.29
2023-03-15T12:01:42.544Z,63587.99
2023-03-15T12:02:51.083Z,63588.66
2023-03-15T12:04:15.570Z,63594.70
2023-03-15T12:06:54.350Z,63594.27
2023-03-15T12:07:59.390Z,63601.16
2023-03-15T12:09:02.954Z,63606.25
2023-03-15T12:10:20.939Z,63610.19
2023-03-15T12:11:26.708Z,63607.46
2023-03-15T12:12:32.824Z,63616.54
2023-03-15T12:13:35.537Z,63625.88
2023-03-15T12:14:37.516Z,63625.55
2023-03-15T12:15:42.540Z,63622.25
2023-03-15T12:16:45.690Z,63617.88
2023-03-15T12:17:55.779Z,63598.79
2023-03-15T12:19:00.289Z,63617.75
2023-03-15T12:20:12.334Z,63619.52
2023-03-15T12:21:23.009Z,63620.63
2023-03-15T12:22:29.512Z,63618.98
2023-03-15T12:23:56.812Z,63589.33
2023-03-15T12:25:02.624Z,63617.65
2023-03-15T12:26:09.003Z,63625.98
2023-03-15T12:27:19.969Z,63626.65
2023-03-15T12:28:31.571Z,63612.40
2023-03-15T12:29:35.122Z,63606.12
2023-03-15T12:30:41.101Z,63615.13
2023-03-15T12:32:04.785Z,63598.98
2023-03-15T12:33:19.923Z,63621.61
2023-03-15T12:35:39.480Z,63607.77
2023-03-15T12:36:45.317Z,63601.31
2023-03-15T12:37:50.230Z,63606.66
2023-03-15T12:39:02.892Z,63613.25
2023-03-15T12:40:21.103Z,63622.25
2023-03-15T12:41:36.236Z,63636.97
2023-03-15T12:42:42.050Z,63652.87
2023-03-15T12:43:47.596Z,63645.31
2023-03-15T12:44:49.735Z,63648.06
2023-03-15T12:45:52.093Z,63645.74
2023-03-15T12:46:57.154Z,63640.24
2023-03-15T12:48:02.846Z,63638.05